Etusivu
METAR-TAF:

METAR-TAF

Lentoasemat :

Grand Marais, Minnesota, Yhdysvallat

Leveyspiiri: 47-50-18N, Pituuspiiri: 090-22-59W, korkeus merenpinnasta: 548 m

Tämänhetkinen sää

Tämä raportti tehtiin 12 minuuttia sitten, kello 11.42 UTC
Tuuli 11 kn pohjoisesta
Lämpötila -2°C
Kosteus 86%
Ilmanpaine 1007 hPa
Näkyvyys: 4.0 km
Pilvistä 1400 ft:n korkeudessa
heikkoa lumisadetta

METAR: KCKC 211142Z AUTO 35011KT 2 1/2SM -SN OVC014 M02/M04 A2973 RMK AO2

Aika: 05:54 (11:54 UTC)


TAF: puuttuu

Säähavainnot ja -ennusteet yli 4000 lentoasemalta (METAR- ja TAF-raportit).

Käytössä olevat sääasemat on merkitty karttaan keltaisilla ja punaisilla pisteillä.

Aseta hiiri pisteen päälle nähdäksesi sääaseman nimen.

Klikkaa sitten nähdäksesi säähavainnot ja -ennusteet.

Kartan vaihtaminen: klikkaa mustalla rastilla varustettuja vihreitä pisteitä, niin voit zoomata sisään; viivalla varustettua vihreää pistettä, niin voit zoomata ulos tai vihreitä nuolia, niin pääset viereisille kartoille.


METAR-TAF: